Orient Challenge — 9V5083 — position and weather

sailwx.info

Track history (hours):
 
Tides and Currents Weather Stations Pressure Air Temp Water Temp Dewpoint Dewpoint Depression Visibility Wind Speed Wind Dir Waves Ship Positions

Orient Challenge

Last reported at 2018-Jan-18 15:25 UTC. Time now 2018-Jan-19 21:24 UTC.
Position N 09°11' W 079°52'.

Length 183 m; draft 12 m.

Type: Tanker. MMSI: 563022700.

Date/timePositionNaut miles runAvg speedWind from/ knotsBaromVisibWave heightAir tempDewpointWater temp
2018-Jan-18 15:25N 09°11' W 079°52'4 8.7
2018-Jan-18 14:59N 09°12' W 079°55'2 3.4
2018-Jan-18 14:30N 09°14' W 079°56'2 4.1
2018-Jan-18 14:01N 09°16' W 079°55'0 0.7
2018-Jan-18 13:30N 09°16' W 079°55'0 0.4
2018-Jan-18 13:00N 09°17' W 079°55'0 0.4
2018-Jan-18 12:30N 09°17' W 079°55'0 0.2
2018-Jan-18 12:00N 09°17' W 079°55'1 2.3
2018-Jan-18 11:30N 09°18' W 079°55'3 5.5
2018-Jan-18 11:00N 09°21' W 079°55'2 4.9
2018-Jan-18 10:30N 09°23' W 079°55'3 6.0
2018-Jan-18 10:00N 09°26' W 079°55'2 3.2
2018-Jan-18 09:30N 09°26' W 079°57'0 0.4
2018-Jan-18 08:58N 09°25' W 079°57'0 0.0
2018-Jan-18 08:25N 09°25' W 079°57'0 0.1
2018-Jan-18 07:49N 09°25' W 079°57'0 0.1
2018-Jan-18 07:19N 09°25' W 079°57'0 0.1
2018-Jan-18 06:55N 09°25' W 079°57'0 0.0
2018-Jan-18 06:25N 09°25' W 079°57'0 0.0
2018-Jan-18 05:58N 09°25' W 079°57'0 0.0
2018-Jan-18 05:28N 09°25' W 079°57'0 0.0
2018-Jan-18 04:58N 09°25' W 079°57'0 0.0
2018-Jan-18 04:04N 09°25' W 079°57'0 0.1
2018-Jan-18 03:58N 09°25' W 079°57'0 0.0
2018-Jan-18 03:28N 09°25' W 079°57'0 0.0
2018-Jan-18 02:58N 09°25' W 079°57'0 0.0
2018-Jan-18 02:28N 09°25' W 079°57'0 0.0
2018-Jan-18 01:58N 09°25' W 079°57'0 0.0
2018-Jan-18 01:28N 09°25' W 079°57'0 0.0
2018-Jan-18 00:58N 09°25' W 079°57'0 0.0
2018-Jan-17 23:58N 09°25' W 079°57'0 0.0
2018-Jan-17 23:55N 09°25' W 079°57'  
Track history (hours):
 
Tides and Currents Weather Stations Pressure Air Temp Water Temp Dewpoint Dewpoint Depression Visibility Wind Speed Wind Dir Waves Ship Positions

Orient Challenge

Last reported at 2018-Jan-18 15:25 UTC. Time now 2018-Jan-19 21:24 UTC.
Position N 09°11' W 079°52'.

Length 183 m; draft 12 m.

Type: Tanker. MMSI: 563022700.

Date/timePositionNaut miles runAvg speedWind from/ knotsBaromVisibWave heightAir tempDewpointWater temp
2018-Jan-18 15:25N 09°11' W 079°52'4 8.7
2018-Jan-18 14:59N 09°12' W 079°55'2 3.4
2018-Jan-18 14:30N 09°14' W 079°56'2 4.1
2018-Jan-18 14:01N 09°16' W 079°55'0 0.7
2018-Jan-18 13:30N 09°16' W 079°55'0 0.4
2018-Jan-18 13:00N 09°17' W 079°55'0 0.4
2018-Jan-18 12:30N 09°17' W 079°55'0 0.2
2018-Jan-18 12:00N 09°17' W 079°55'1 2.3
2018-Jan-18 11:30N 09°18' W 079°55'3 5.5
2018-Jan-18 11:00N 09°21' W 079°55'2 4.9
2018-Jan-18 10:30N 09°23' W 079°55'3 6.0
2018-Jan-18 10:00N 09°26' W 079°55'2 3.2
2018-Jan-18 09:30N 09°26' W 079°57'0 0.4
2018-Jan-18 08:58N 09°25' W 079°57'0 0.0
2018-Jan-18 08:25N 09°25' W 079°57'0 0.1
2018-Jan-18 07:49N 09°25' W 079°57'0 0.1
2018-Jan-18 07:19N 09°25' W 079°57'0 0.1
2018-Jan-18 06:55N 09°25' W 079°57'0 0.0
2018-Jan-18 06:25N 09°25' W 079°57'0 0.0
2018-Jan-18 05:58N 09°25' W 079°57'0 0.0
2018-Jan-18 05:28N 09°25' W 079°57'0 0.0
2018-Jan-18 04:58N 09°25' W 079°57'0 0.0
2018-Jan-18 04:04N 09°25' W 079°57'0 0.1
2018-Jan-18 03:58N 09°25' W 079°57'0 0.0
2018-Jan-18 03:28N 09°25' W 079°57'0 0.0
2018-Jan-18 02:58N 09°25' W 079°57'0 0.0
2018-Jan-18 02:28N 09°25' W 079°57'0 0.0
2018-Jan-18 01:58N 09°25' W 079°57'0 0.0
2018-Jan-18 01:28N 09°25' W 079°57'0 0.0
2018-Jan-18 00:58N 09°25' W 079°57'0 0.0
2018-Jan-17 23:58N 09°25' W 079°57'0 0.0
2018-Jan-17 23:55N 09°25' W 079°57'  

Dump ship's entire track history